createdAt,value
2022-12-05T00:00:09.566Z,55.30
2022-12-05T00:02:57.309Z,72.20
2022-12-05T00:05:25.139Z,66.40
2022-12-05T00:07:52.971Z,58.90
2022-12-05T00:10:20.805Z,62.10
2022-12-05T00:12:49.074Z,63.50
2022-12-05T00:15:17.170Z,62.00
2022-12-05T00:17:44.961Z,62.70
2022-12-05T00:20:12.855Z,50.50
2022-12-05T00:22:40.620Z,66.40
2022-12-05T00:25:09.022Z,59.90
2022-12-05T00:27:36.880Z,61.70
2022-12-05T00:30:05.993Z,66.00
2022-12-05T00:32:33.865Z,63.80
2022-12-05T00:35:01.627Z,62.50
2022-12-05T00:37:29.648Z,66.60
2022-12-05T00:39:57.845Z,65.90
2022-12-05T00:42:25.795Z,65.30
2022-12-05T00:44:53.672Z,65.70
2022-12-05T00:47:21.429Z,68.20
2022-12-05T00:49:49.201Z,69.10
2022-12-05T00:52:17.134Z,65.00
2022-12-05T00:54:44.923Z,65.40
2022-12-05T00:57:12.807Z,61.00
2022-12-05T00:59:40.628Z,63.00
2022-12-05T01:02:08.379Z,58.90
2022-12-05T01:04:36.756Z,61.30
2022-12-05T01:07:04.982Z,63.60
2022-12-05T01:09:32.763Z,67.60
2022-12-05T01:12:00.665Z,65.20
2022-12-05T01:14:29.144Z,59.60
2022-12-05T01:16:57.120Z,60.80
2022-12-05T01:19:32.425Z,67.40
2022-12-05T01:22:00.287Z,68.00
2022-12-05T01:24:29.838Z,65.80
2022-12-05T01:26:58.767Z,62.70
2022-12-05T01:29:28.372Z,66.40
2022-12-05T01:31:56.630Z,61.00
2022-12-05T01:34:24.668Z,64.20
2022-12-05T01:36:52.885Z,61.30
2022-12-05T01:39:20.678Z,66.60
2022-12-05T01:41:50.049Z,60.90
2022-12-05T01:44:17.788Z,64.70
2022-12-05T01:46:51.044Z,62.80
2022-12-05T01:49:37.778Z,60.80
2022-12-05T01:52:18.350Z,64.20
2022-12-05T01:54:48.142Z,53.70
2022-12-05T01:57:16.285Z,64.30
2022-12-05T01:59:47.907Z,63.40
2022-12-05T02:02:16.311Z,57.80
2022-12-05T02:05:04.607Z,57.10
2022-12-05T02:07:33.945Z,58.60
2022-12-05T02:10:01.921Z,63.30
2022-12-05T02:12:29.972Z,63.00
2022-12-05T02:15:09.697Z,59.90
2022-12-05T02:17:49.573Z,60.40
2022-12-05T02:20:32.391Z,58.50
2022-12-05T02:23:27.521Z,61.10
2022-12-05T02:26:13.910Z,64.70
2022-12-05T02:29:13.932Z,62.90
2022-12-05T02:31:51.700Z,60.60
2022-12-05T02:34:31.669Z,62.50
2022-12-05T02:37:11.004Z,61.50
2022-12-05T02:39:41.856Z,59.80
2022-12-05T02:42:21.694Z,53.80
2022-12-05T02:44:59.552Z,61.90
2022-12-05T02:47:31.818Z,62.00
2022-12-05T02:50:00.595Z,64.00
2022-12-05T02:52:30.526Z,58.70
2022-12-05T02:55:00.141Z,62.10
2022-12-05T02:57:28.060Z,62.40
2022-12-05T02:59:56.133Z,65.40
2022-12-05T03:02:27.948Z,60.80
2022-12-05T03:05:02.167Z,61.00
2022-12-05T03:07:31.961Z,56.60
2022-12-05T03:10:05.818Z,62.00
2022-12-05T03:12:49.324Z,58.50
2022-12-05T03:15:22.900Z,57.80
2022-12-05T03:18:13.551Z,54.00
2022-12-05T03:21:16.340Z,58.10
2022-12-05T03:23:58.198Z,55.40
2022-12-05T03:26:42.462Z,58.40
2022-12-05T03:30:06.142Z,64.10
2022-12-05T03:32:44.068Z,56.00
2022-12-05T03:35:36.748Z,59.80
2022-12-05T03:38:35.194Z,62.90
2022-12-05T03:41:23.030Z,60.20
2022-12-05T03:44:29.329Z,57.40
2022-12-05T03:47:06.825Z,62.60
2022-12-05T03:49:45.854Z,62.60
2022-12-05T03:52:19.696Z,64.60
2022-12-05T03:54:53.438Z,65.90
2022-12-05T03:57:35.988Z,59.80
2022-12-05T04:00:04.267Z,69.60
2022-12-05T04:02:52.560Z,67.80
2022-12-05T04:05:48.285Z,62.80
2022-12-05T04:08:26.432Z,70.20
2022-12-05T04:10:59.585Z,68.20
2022-12-05T04:13:33.259Z,71.70
2022-12-05T04:16:29.312Z,67.30
2022-12-05T04:19:09.996Z,71.90
2022-12-05T04:21:43.402Z,68.60
2022-12-05T04:24:39.696Z,76.30
2022-12-05T04:27:11.105Z,73.00
2022-12-05T04:30:02.706Z,69.50
2022-12-05T04:32:37.967Z,71.40
2022-12-05T04:35:14.158Z,69.50
2022-12-05T04:37:45.751Z,71.60
2022-12-05T04:40:23.362Z,74.50
2022-12-05T04:42:54.784Z,64.20
2022-12-05T04:45:25.898Z,58.30
2022-12-05T04:48:00.187Z,68.10
2022-12-05T04:50:32.264Z,63.00
2022-12-05T04:53:02.513Z,61.40
2022-12-05T04:55:33.348Z,62.10
2022-12-05T04:58:24.343Z,70.80
2022-12-05T05:00:56.372Z,70.70
2022-12-05T05:03:36.610Z,64.60
2022-12-05T05:06:04.967Z,70.60
2022-12-05T05:08:32.901Z,72.10
2022-12-05T05:11:18.964Z,57.10
2022-12-05T05:13:47.607Z,73.60
2022-12-05T05:16:25.371Z,69.10
2022-12-05T05:18:54.228Z,78.80
2022-12-05T05:21:31.585Z,74.00
2022-12-05T05:24:00.390Z,69.40
2022-12-05T05:26:30.442Z,67.10
2022-12-05T05:28:58.726Z,74.90
2022-12-05T05:31:27.222Z,80.10
2022-12-05T05:33:57.575Z,70.30
2022-12-05T05:36:28.103Z,69.10
2022-12-05T05:38:58.418Z,66.00
2022-12-05T05:41:31.578Z,77.50
2022-12-05T05:44:01.346Z,79.40
2022-12-05T05:46:32.449Z,68.40
2022-12-05T05:49:02.162Z,65.90
2022-12-05T05:51:30.807Z,71.60
2022-12-05T05:53:59.838Z,67.90
2022-12-05T05:56:29.844Z,68.20
2022-12-05T05:59:08.054Z,73.60
2022-12-05T06:01:36.367Z,69.30
2022-12-05T06:04:05.243Z,61.70
2022-12-05T06:06:33.340Z,60.90
2022-12-05T06:09:01.264Z,65.20
2022-12-05T06:11:29.235Z,70.50
2022-12-05T06:14:00.868Z,70.90
2022-12-05T06:16:30.417Z,70.30
2022-12-05T06:18:58.972Z,69.10
2022-12-05T06:21:27.286Z,69.80
2022-12-05T06:23:55.522Z,62.90
2022-12-05T06:26:23.358Z,61.90
2022-12-05T06:28:51.405Z,65.10
2022-12-05T06:31:22.455Z,50.10
2022-12-05T06:33:50.529Z,57.70
2022-12-05T06:36:21.257Z,60.60
2022-12-05T06:38:49.464Z,63.60
2022-12-05T06:41:20.205Z,62.90
2022-12-05T06:43:48.267Z,67.70
2022-12-05T06:46:16.280Z,71.70
2022-12-05T06:48:44.636Z,60.90
2022-12-05T06:51:15.225Z,65.90
2022-12-05T06:53:43.748Z,61.30
2022-12-05T06:56:14.975Z,63.50
2022-12-05T06:58:44.784Z,64.00
2022-12-05T07:01:37.053Z,64.80
2022-12-05T07:04:07.914Z,64.80
2022-12-05T07:06:35.930Z,61.30
2022-12-05T07:09:04.652Z,68.00
2022-12-05T07:11:32.934Z,72.90
2022-12-05T07:14:07.176Z,66.20
2022-12-05T07:16:38.393Z,61.00
2022-12-05T07:19:06.236Z,69.80
2022-12-05T07:21:34.014Z,72.00
2022-12-05T07:24:02.482Z,67.00
2022-12-05T07:26:33.121Z,65.10
2022-12-05T07:29:02.641Z,66.10
2022-12-05T07:31:30.932Z,68.10
2022-12-05T07:33:58.946Z,62.10
2022-12-05T07:36:26.725Z,55.40
2022-12-05T07:38:57.058Z,61.10
2022-12-05T07:41:29.083Z,60.50
2022-12-05T07:44:00.103Z,62.50
2022-12-05T07:46:29.653Z,56.10
2022-12-05T07:48:58.115Z,55.70
2022-12-05T07:51:25.995Z,55.10
2022-12-05T07:53:53.833Z,59.80
2022-12-05T07:56:21.762Z,54.90
2022-12-05T07:58:50.986Z,56.30
2022-12-05T08:01:24.743Z,51.20
2022-12-05T08:03:54.801Z,65.40
2022-12-05T08:06:26.790Z,64.40
2022-12-05T08:08:55.396Z,70.60
2022-12-05T08:11:25.912Z,60.40
2022-12-05T08:13:54.176Z,67.80
2022-12-05T08:16:30.311Z,62.60
2022-12-05T08:19:01.423Z,60.40
2022-12-05T08:21:29.743Z,65.90
2022-12-05T08:23:58.090Z,64.70
2022-12-05T08:26:30.749Z,60.30
2022-12-05T08:29:07.791Z,59.00
2022-12-05T08:31:40.790Z,56.20
2022-12-05T08:34:11.814Z,57.50
2022-12-05T08:36:40.446Z,57.00
2022-12-05T08:39:12.073Z,57.10
2022-12-05T08:41:39.832Z,52.20
2022-12-05T08:44:08.925Z,55.80
2022-12-05T08:46:38.621Z,60.50
2022-12-05T08:49:06.777Z,62.20
2022-12-05T08:51:34.945Z,57.30
2022-12-05T08:54:04.916Z,61.40
2022-12-05T08:56:35.585Z,60.40
2022-12-05T08:59:06.041Z,58.60
2022-12-05T09:01:38.414Z,54.90
2022-12-05T09:04:07.750Z,54.80
2022-12-05T09:06:36.671Z,52.90
2022-12-05T09:09:07.704Z,54.40
2022-12-05T09:11:40.954Z,50.40
2022-12-05T09:14:08.986Z,50.40
2022-12-05T09:16:39.351Z,57.20
2022-12-05T09:19:14.680Z,61.20
2022-12-05T09:21:43.475Z,65.60
2022-12-05T09:24:13.270Z,68.20
2022-12-05T09:26:41.871Z,73.20
2022-12-05T09:29:16.611Z,61.80
2022-12-05T09:31:47.843Z,57.50
2022-12-05T09:34:18.384Z,60.90
2022-12-05T09:36:55.840Z,61.20
2022-12-05T09:39:29.357Z,58.30
2022-12-05T09:42:24.877Z,54.10
2022-12-05T09:45:12.622Z,53.70
2022-12-05T09:48:01.073Z,54.40
2022-12-05T09:50:32.312Z,55.00
2022-12-05T09:53:09.234Z,51.90
2022-12-05T09:56:09.731Z,49.80
2022-12-05T09:58:47.671Z,52.90
2022-12-05T10:01:15.746Z,50.60
2022-12-05T10:04:08.257Z,48.10
2022-12-05T10:06:51.370Z,52.60
2022-12-05T10:09:28.514Z,53.70
2022-12-05T10:12:15.230Z,53.50
2022-12-05T10:14:52.234Z,52.90
2022-12-05T10:17:35.204Z,53.60
2022-12-05T10:20:16.429Z,56.60
2022-12-05T10:22:50.361Z,56.10
2022-12-05T10:25:24.777Z,60.90
2022-12-05T10:27:56.741Z,53.30
2022-12-05T10:30:30.091Z,55.90
2022-12-05T10:33:06.462Z,58.90
2022-12-05T10:35:40.201Z,56.20
2022-12-05T10:38:29.074Z,55.00
2022-12-05T10:41:05.769Z,56.20
2022-12-05T10:43:37.258Z,55.00
2022-12-05T10:46:07.844Z,60.30
2022-12-05T10:48:39.111Z,56.20
2022-12-05T10:51:11.468Z,57.20
2022-12-05T10:53:41.569Z,53.70
2022-12-05T10:56:39.534Z,55.20
2022-12-05T10:59:10.130Z,56.70
2022-12-05T11:01:45.104Z,53.50
2022-12-05T11:04:43.460Z,54.80
2022-12-05T11:07:26.390Z,58.80
2022-12-05T11:09:54.582Z,55.90
2022-12-05T11:12:27.045Z,54.50
2022-12-05T11:14:56.682Z,62.50
2022-12-05T11:17:32.514Z,63.00
2022-12-05T11:20:00.934Z,59.80
2022-12-05T11:22:35.133Z,58.20
2022-12-05T11:25:24.610Z,60.20
2022-12-05T11:27:53.579Z,61.00
2022-12-05T11:30:28.044Z,63.80
2022-12-05T11:33:24.844Z,59.40
2022-12-05T11:35:54.635Z,56.60
2022-12-05T11:38:28.011Z,58.90
2022-12-05T11:41:34.111Z,64.20
2022-12-05T11:44:13.996Z,61.20
2022-12-05T11:47:03.759Z,59.30
2022-12-05T11:49:52.989Z,59.20
2022-12-05T11:52:48.634Z,66.20
2022-12-05T11:55:24.706Z,57.30
2022-12-05T11:58:10.747Z,54.10
2022-12-05T12:00:50.731Z,56.80
2022-12-05T12:03:34.588Z,59.50
2022-12-05T12:06:12.787Z,56.10
2022-12-05T12:08:56.741Z,60.20
2022-12-05T12:11:46.871Z,59.00
2022-12-05T12:14:42.746Z,60.40
2022-12-05T12:17:39.077Z,57.70
2022-12-05T12:20:22.284Z,60.90
2022-12-05T12:23:14.807Z,59.60
2022-12-05T12:26:16.565Z,66.00
2022-12-05T12:29:07.467Z,62.90
2022-12-05T12:31:49.981Z,63.70
2022-12-05T12:34:36.123Z,62.80
2022-12-05T12:37:24.301Z,64.60
2022-12-05T12:39:58.891Z,64.00
2022-12-05T12:42:58.014Z,66.20
2022-12-05T12:45:49.028Z,62.40
2022-12-05T12:48:29.329Z,68.10
2022-12-05T12:51:01.326Z,65.60
2022-12-05T12:53:54.839Z,61.40
2022-12-05T12:56:38.600Z,60.50
2022-12-05T12:59:25.031Z,71.10
2022-12-05T13:02:01.905Z,70.90
2022-12-05T13:04:41.915Z,68.30
2022-12-05T13:07:19.140Z,66.20
2022-12-05T13:09:58.894Z,64.20
2022-12-05T13:12:31.625Z,71.70
2022-12-05T13:15:05.557Z,68.70
2022-12-05T13:17:34.099Z,63.90
2022-12-05T13:20:03.137Z,69.30
2022-12-05T13:22:46.712Z,72.00
2022-12-05T13:25:16.982Z,73.40
2022-12-05T13:27:56.905Z,73.80
2022-12-05T13:30:28.344Z,68.60
2022-12-05T13:33:05.030Z,70.60
2022-12-05T13:35:55.881Z,75.30
2022-12-05T13:38:55.767Z,68.50
2022-12-05T13:41:58.291Z,72.50
2022-12-05T13:44:36.781Z,72.90
2022-12-05T13:47:07.703Z,83.60
2022-12-05T13:49:45.757Z,72.40
2022-12-05T13:52:23.955Z,77.00
2022-12-05T13:55:02.708Z,84.20
2022-12-05T13:57:39.099Z,83.40
2022-12-05T14:00:10.280Z,85.50
2022-12-05T14:02:47.455Z,88.90
2022-12-05T14:05:21.274Z,85.90
2022-12-05T14:08:03.608Z,96.80
2022-12-05T14:10:32.077Z,90.00
2022-12-05T14:13:18.096Z,78.90
2022-12-05T14:15:49.236Z,83.90
2022-12-05T14:18:42.404Z,80.10
2022-12-05T14:21:36.385Z,79.80
2022-12-05T14:24:43.490Z,72.90
2022-12-05T14:27:33.694Z,89.80
2022-12-05T14:30:05.030Z,81.60
2022-12-05T14:32:42.405Z,80.90
2022-12-05T14:35:17.656Z,81.70
2022-12-05T14:38:06.839Z,80.80
2022-12-05T14:40:40.490Z,90.40
2022-12-05T14:43:25.212Z,91.00
2022-12-05T14:45:53.247Z,89.20
2022-12-05T14:48:43.904Z,91.40
2022-12-05T14:51:30.559Z,95.20
2022-12-05T14:54:07.682Z,92.40
2022-12-05T14:56:42.401Z,94.40
2022-12-05T14:59:25.692Z,86.40
2022-12-05T15:02:02.668Z,92.20
2022-12-05T15:04:56.509Z,112.40
2022-12-05T15:07:35.974Z,109.70
2022-12-05T15:10:36.148Z,97.80
2022-12-05T15:13:20.661Z,91.90
2022-12-05T15:15:59.228Z,94.90
2022-12-05T15:18:35.412Z,95.10
2022-12-05T15:21:22.841Z,82.30
2022-12-05T15:24:00.351Z,87.80
2022-12-05T15:26:49.648Z,83.20
2022-12-05T15:29:25.569Z,93.80
2022-12-05T15:32:02.811Z,96.20
2022-12-05T15:34:49.875Z,100.40
2022-12-05T15:37:55.850Z,95.80
2022-12-05T15:40:26.192Z,94.10
2022-12-05T15:42:56.796Z,95.30
2022-12-05T15:45:28.217Z,87.50
2022-12-05T15:48:12.491Z,85.00
2022-12-05T15:50:46.885Z,80.50
2022-12-05T15:53:41.567Z,77.20
2022-12-05T15:59:33.401Z,87.20
2022-12-05T16:02:39.653Z,91.90
2022-12-05T16:05:41.207Z,94.20
2022-12-05T16:08:13.045Z,97.50
2022-12-05T16:10:41.216Z,91.50
2022-12-05T16:13:16.406Z,99.60
2022-12-05T16:15:52.474Z,94.80
2022-12-05T16:18:32.461Z,97.20
2022-12-05T16:21:00.603Z,106.10
2022-12-05T16:23:33.558Z,99.10
2022-12-05T16:26:21.421Z,85.60
2022-12-05T16:29:02.280Z,86.60
2022-12-05T16:31:33.308Z,87.00
2022-12-05T16:34:05.661Z,86.90
2022-12-05T16:36:35.360Z,99.20
2022-12-05T16:39:19.570Z,83.40
2022-12-05T16:41:49.871Z,95.70
2022-12-05T16:44:27.101Z,121.70
2022-12-05T16:46:56.926Z,119.50
2022-12-05T16:49:30.937Z,100.10
2022-12-05T16:52:08.757Z,93.60
2022-12-05T16:54:40.300Z,95.00
2022-12-05T16:57:14.032Z,97.10
2022-12-05T16:59:44.179Z,97.50
2022-12-05T17:02:18.477Z,97.80
2022-12-05T17:04:47.677Z,96.60
2022-12-05T17:07:16.142Z,96.90
2022-12-05T17:09:45.185Z,94.70
2022-12-05T17:12:28.481Z,89.50
2022-12-05T17:15:01.179Z,84.50
2022-12-05T17:17:29.691Z,86.40
2022-12-05T17:19:57.977Z,87.10
2022-12-05T17:22:30.223Z,82.70
2022-12-05T17:25:00.750Z,88.70
2022-12-05T17:27:29.152Z,88.10
2022-12-05T17:30:02.421Z,94.70
2022-12-05T17:32:31.119Z,88.60
2022-12-05T17:35:06.481Z,88.80
2022-12-05T17:37:36.059Z,87.40
2022-12-05T17:40:07.430Z,93.90
2022-12-05T17:42:36.088Z,97.40
2022-12-05T17:45:07.471Z,91.70
2022-12-05T17:47:37.036Z,96.70
2022-12-05T17:50:07.308Z,90.50
2022-12-05T17:52:38.575Z,95.00
2022-12-05T17:55:22.442Z,88.60
2022-12-05T17:57:51.600Z,86.50
2022-12-05T18:00:23.565Z,87.00
2022-12-05T18:02:52.815Z,84.20
2022-12-05T18:05:21.785Z,87.60
2022-12-05T18:07:51.268Z,83.30
2022-12-05T18:10:22.219Z,85.50
2022-12-05T18:12:53.066Z,84.70
2022-12-05T18:15:23.781Z,91.90
2022-12-05T18:17:52.113Z,84.70
2022-12-05T18:20:20.239Z,89.70
2022-12-05T18:22:52.408Z,92.60
2022-12-05T18:25:23.985Z,95.50
2022-12-05T18:27:56.035Z,97.80
2022-12-05T18:30:24.981Z,93.80
2022-12-05T18:32:54.049Z,90.30
2022-12-05T18:35:40.493Z,99.40
2022-12-05T18:38:12.638Z,95.10
2022-12-05T18:40:41.144Z,94.30
2022-12-05T18:43:09.225Z,91.70
2022-12-05T18:45:38.311Z,97.30
2022-12-05T18:50:55.182Z,98.00
2022-12-05T18:53:23.312Z,95.10
2022-12-05T18:56:13.706Z,99.60
2022-12-05T18:58:39.697Z,99.40
2022-12-05T19:01:10.846Z,90.60
2022-12-05T19:03:40.285Z,86.90
2022-12-05T19:06:18.606Z,92.70
2022-12-05T19:08:54.617Z,94.60
2022-12-05T19:11:24.333Z,94.20
2022-12-05T19:14:00.885Z,83.50
2022-12-05T19:16:31.937Z,81.70
2022-12-05T19:19:01.679Z,88.60
2022-12-05T19:21:32.857Z,94.00
2022-12-05T19:24:04.242Z,92.60
2022-12-05T19:26:32.830Z,99.30
2022-12-05T19:29:01.076Z,97.60
2022-12-05T19:31:31.005Z,98.40
2022-12-05T19:34:01.992Z,97.90
2022-12-05T19:36:36.360Z,98.40
2022-12-05T19:39:12.178Z,106.90
2022-12-05T19:41:43.598Z,107.40
2022-12-05T19:44:18.768Z,101.50
2022-12-05T19:46:51.711Z,105.50
2022-12-05T19:49:29.059Z,102.90
2022-12-05T19:51:57.954Z,110.20
2022-12-05T19:54:27.008Z,115.00
2022-12-05T19:56:58.464Z,106.40
2022-12-05T19:59:26.953Z,106.60
2022-12-05T20:01:55.784Z,111.40
2022-12-05T20:04:25.690Z,113.40
2022-12-05T20:06:55.825Z,109.50
2022-12-05T20:09:24.247Z,112.40
2022-12-05T20:11:55.872Z,107.70
2022-12-05T20:14:27.892Z,111.90
2022-12-05T20:16:56.240Z,109.40
2022-12-05T20:19:24.922Z,107.70
2022-12-05T20:21:55.726Z,106.00
2022-12-05T20:24:24.670Z,111.00
2022-12-05T20:26:53.652Z,107.50
2022-12-05T20:29:22.430Z,104.00
2022-12-05T20:31:52.807Z,106.80
2022-12-05T20:34:22.014Z,108.50
2022-12-05T20:36:53.403Z,106.60
2022-12-05T20:39:21.848Z,103.30
2022-12-05T20:41:50.838Z,107.00
2022-12-05T20:44:19.344Z,106.40
2022-12-05T20:46:50.869Z,118.30
2022-12-05T20:49:21.059Z,108.30
2022-12-05T20:51:49.236Z,111.40
2022-12-05T20:54:18.528Z,110.90
2022-12-05T20:56:47.677Z,117.10
2022-12-05T20:59:16.798Z,107.70
2022-12-05T21:01:48.424Z,109.20
2022-12-05T21:04:18.038Z,110.50
2022-12-05T21:06:47.155Z,117.30
2022-12-05T21:09:18.413Z,110.50
2022-12-05T21:11:46.424Z,108.00
2022-12-05T21:14:14.916Z,110.10
2022-12-05T21:16:43.053Z,115.40
2022-12-05T21:19:11.454Z,112.00
2022-12-05T21:21:39.484Z,105.80
2022-12-05T21:24:08.229Z,113.00
2022-12-05T21:26:37.813Z,112.90
2022-12-05T21:29:08.366Z,118.00
2022-12-05T21:31:39.480Z,113.50
2022-12-05T21:34:15.891Z,106.60
2022-12-05T21:36:44.989Z,109.50
2022-12-05T21:39:13.995Z,113.10
2022-12-05T21:41:42.137Z,107.70
2022-12-05T21:44:10.488Z,101.80
2022-12-05T21:46:38.631Z,106.60
2022-12-05T21:49:06.746Z,112.60
2022-12-05T21:51:34.796Z,106.60
2022-12-05T21:54:02.815Z,102.00
2022-12-05T21:56:30.771Z,108.00
2022-12-05T21:58:58.693Z,111.70
2022-12-05T22:01:28.666Z,107.70
2022-12-05T22:04:01.768Z,98.80
2022-12-05T22:06:34.275Z,100.70
2022-12-05T22:09:04.710Z,103.00
2022-12-05T22:11:33.668Z,108.40
2022-12-05T22:14:01.619Z,104.60
2022-12-05T22:16:33.069Z,103.30
2022-12-05T22:19:02.500Z,109.30
2022-12-05T22:21:34.367Z,110.70
2022-12-05T22:24:02.704Z,99.50
2022-12-05T22:26:31.148Z,106.30
2022-12-05T22:28:59.537Z,105.90
2022-12-05T22:31:27.807Z,108.70
2022-12-05T22:33:55.705Z,109.20
2022-12-05T22:36:24.407Z,104.00
2022-12-05T22:38:52.651Z,109.30
2022-12-05T22:41:23.667Z,109.70
2022-12-05T22:43:58.277Z,108.10
2022-12-05T22:46:28.424Z,102.60
2022-12-05T22:48:58.397Z,105.90
2022-12-05T22:51:27.540Z,112.00
2022-12-05T22:53:56.361Z,112.10
2022-12-05T22:56:26.835Z,101.20
2022-12-05T22:58:57.105Z,108.80
2022-12-05T23:01:30.813Z,109.10
2022-12-05T23:04:01.906Z,103.70
2022-12-05T23:06:31.756Z,98.00
2022-12-05T23:09:00.549Z,101.20
2022-12-05T23:11:30.809Z,106.60
2022-12-05T23:14:02.214Z,103.60
2022-12-05T23:16:32.824Z,105.50
2022-12-05T23:19:04.657Z,100.40
2022-12-05T23:21:40.382Z,100.50
2022-12-05T23:24:11.626Z,103.30
2022-12-05T23:26:42.420Z,101.30
2022-12-05T23:29:12.499Z,102.60
2022-12-05T23:31:42.112Z,104.20
2022-12-05T23:34:11.130Z,107.20
2022-12-05T23:36:41.298Z,105.90
2022-12-05T23:39:09.421Z,98.10
2022-12-05T23:41:37.337Z,95.30
2022-12-05T23:44:05.114Z,99.60
2022-12-05T23:46:32.995Z,99.40
2022-12-05T23:49:01.008Z,99.10
2022-12-05T23:51:30.970Z,91.70
2022-12-05T23:54:01.086Z,97.40
2022-12-05T23:56:32.420Z,104.00
2022-12-05T23:59:01.904Z,95.50
